createdAt,value
2022-08-14T00:01:29.357Z,17.00
2022-08-14T00:04:34.133Z,18.00
2022-08-14T00:07:00.271Z,17.40
2022-08-14T00:09:33.737Z,17.20
2022-08-14T00:12:24.268Z,16.70
2022-08-14T00:14:58.304Z,16.80
2022-08-14T00:17:38.232Z,16.00
2022-08-14T00:20:36.095Z,18.20
2022-08-14T00:23:19.220Z,17.80
2022-08-14T00:26:05.890Z,17.50
2022-08-14T00:28:40.081Z,17.30
2022-08-14T00:31:14.985Z,17.00
2022-08-14T00:33:51.668Z,17.60
2022-08-14T00:36:35.040Z,15.90
2022-08-14T00:39:18.201Z,16.20
2022-08-14T00:41:52.153Z,16.00
2022-08-14T00:44:26.703Z,16.60
2022-08-14T00:47:10.972Z,17.10
2022-08-14T00:49:45.104Z,16.30
2022-08-14T00:52:19.494Z,16.30
2022-08-14T00:54:57.937Z,16.00
2022-08-14T00:57:35.462Z,16.30
2022-08-14T01:00:34.484Z,16.70
2022-08-14T01:03:10.065Z,17.10
2022-08-14T01:05:52.075Z,17.70
2022-08-14T01:08:51.135Z,17.00
2022-08-14T01:11:21.564Z,17.10
2022-08-14T01:14:01.611Z,16.10
2022-08-14T01:16:53.026Z,15.40
2022-08-14T01:19:47.999Z,16.70
2022-08-14T01:22:26.603Z,15.00
2022-08-14T01:25:00.725Z,16.20
2022-08-14T01:27:54.597Z,15.90
2022-08-14T01:30:36.597Z,16.40
2022-08-14T01:33:13.539Z,15.10
2022-08-14T01:36:03.309Z,14.70
2022-08-14T01:38:41.488Z,15.30
2022-08-14T01:41:23.083Z,14.50
2022-08-14T01:44:33.235Z,17.00
2022-08-14T01:47:21.088Z,15.90
2022-08-14T01:50:01.300Z,15.70
2022-08-14T01:52:58.497Z,15.70
2022-08-14T01:55:32.887Z,14.80
2022-08-14T01:58:19.980Z,15.20
2022-08-14T02:01:05.165Z,15.80
2022-08-14T02:03:53.327Z,15.80
2022-08-14T02:06:33.186Z,16.90
2022-08-14T02:09:19.409Z,16.00
2022-08-14T02:11:56.696Z,16.20
2022-08-14T02:14:32.175Z,16.30
2022-08-14T02:17:09.761Z,15.80
2022-08-14T02:19:43.338Z,15.60
2022-08-14T02:22:29.216Z,17.00
2022-08-14T02:25:07.365Z,17.30
2022-08-14T02:28:25.301Z,17.40
2022-08-14T02:30:38.445Z,17.90
2022-08-14T02:33:11.876Z,16.80
2022-08-14T02:35:46.699Z,16.90
2022-08-14T02:38:29.929Z,16.20
2022-08-14T02:41:08.966Z,15.00
2022-08-14T02:43:46.264Z,16.10
2022-08-14T02:46:26.928Z,17.40
2022-08-14T02:49:06.896Z,17.30
2022-08-14T02:51:41.320Z,16.70
2022-08-14T02:54:19.710Z,16.40
2022-08-14T02:57:15.313Z,17.10
2022-08-14T02:59:48.504Z,15.30
2022-08-14T03:02:48.882Z,18.30
2022-08-14T03:05:18.293Z,18.40
2022-08-14T03:07:52.974Z,17.90
2022-08-14T03:10:32.466Z,17.70
2022-08-14T03:13:07.114Z,17.00
2022-08-14T03:15:55.542Z,17.10
2022-08-14T03:18:32.708Z,16.80
2022-08-14T03:21:11.291Z,15.80
2022-08-14T03:23:47.189Z,16.50
2022-08-14T03:26:30.536Z,18.40
2022-08-14T03:29:04.842Z,17.00
2022-08-14T03:31:40.389Z,17.80
2022-08-14T03:34:24.971Z,16.80
2022-08-14T03:37:39.531Z,15.20
2022-08-14T03:40:03.927Z,15.60
2022-08-14T03:42:37.297Z,17.80
2022-08-14T03:45:19.260Z,17.90
2022-08-14T03:48:30.346Z,17.80
2022-08-14T03:51:05.007Z,18.70
2022-08-14T03:53:46.422Z,17.10
2022-08-14T03:56:21.451Z,16.60
2022-08-14T03:58:58.173Z,17.50
2022-08-14T04:01:39.090Z,17.50
2022-08-14T04:04:14.771Z,17.60
2022-08-14T04:06:51.463Z,16.80
2022-08-14T04:09:26.963Z,19.20
2022-08-14T04:12:01.919Z,18.80
2022-08-14T04:14:37.261Z,18.80
2022-08-14T04:17:11.490Z,17.10
2022-08-14T04:19:46.347Z,18.60
2022-08-14T04:22:22.198Z,20.40
2022-08-14T04:24:55.754Z,21.70
2022-08-14T04:27:30.478Z,21.00
2022-08-14T04:30:05.581Z,21.40
2022-08-14T04:32:57.795Z,19.80
2022-08-14T04:35:56.313Z,19.90
2022-08-14T04:38:43.315Z,20.50
2022-08-14T04:41:37.967Z,19.50
2022-08-14T04:44:26.589Z,18.70
2022-08-14T04:47:27.509Z,20.10
2022-08-14T04:50:06.266Z,20.00
2022-08-14T04:52:40.531Z,20.20
2022-08-14T04:55:15.545Z,20.30
2022-08-14T04:57:49.279Z,20.10
2022-08-14T05:00:23.258Z,18.10
2022-08-14T05:02:58.584Z,18.80
2022-08-14T05:05:34.209Z,18.10
2022-08-14T05:08:32.086Z,16.50
2022-08-14T05:11:11.878Z,16.90
2022-08-14T05:14:16.650Z,16.40
2022-08-14T05:16:40.112Z,16.70
2022-08-14T05:19:24.944Z,17.50
2022-08-14T05:22:16.571Z,15.10
2022-08-14T05:24:52.105Z,15.90
2022-08-14T05:27:25.424Z,16.00
2022-08-14T05:30:09.973Z,15.60
2022-08-14T05:32:43.718Z,15.30
2022-08-14T05:35:21.817Z,16.50
2022-08-14T05:37:55.179Z,15.50
2022-08-14T05:40:28.671Z,15.50
2022-08-14T05:43:02.341Z,16.10
2022-08-14T05:45:41.062Z,16.10
2022-08-14T05:48:32.702Z,16.40
2022-08-14T05:51:07.743Z,16.90
2022-08-14T05:53:43.552Z,17.60
2022-08-14T05:56:34.126Z,17.00
2022-08-14T05:59:11.202Z,17.00
2022-08-14T06:01:44.446Z,16.00
2022-08-14T06:04:20.027Z,18.90
2022-08-14T06:06:53.588Z,17.80
2022-08-14T06:09:26.772Z,18.10
2022-08-14T06:11:59.980Z,17.10
2022-08-14T06:14:33.776Z,17.30
2022-08-14T06:17:08.151Z,17.10
2022-08-14T06:19:41.385Z,18.80
2022-08-14T06:22:14.636Z,18.50
2022-08-14T06:24:50.680Z,18.80
2022-08-14T06:27:23.969Z,18.10
2022-08-14T06:29:57.257Z,18.00
2022-08-14T06:32:37.863Z,17.80
2022-08-14T06:35:25.053Z,18.50
2022-08-14T06:38:04.519Z,18.80
2022-08-14T06:40:43.071Z,20.00
2022-08-14T06:43:20.903Z,20.80
2022-08-14T06:45:55.015Z,20.30
2022-08-14T06:48:32.609Z,18.30
2022-08-14T06:51:06.079Z,18.40
2022-08-14T06:53:39.366Z,17.70
2022-08-14T06:56:14.247Z,17.50
2022-08-14T06:58:47.435Z,19.40
2022-08-14T07:01:38.393Z,20.10
2022-08-14T07:04:29.974Z,19.00
2022-08-14T07:07:06.877Z,18.80
2022-08-14T07:09:50.614Z,16.40
2022-08-14T07:12:52.021Z,18.40
2022-08-14T07:15:20.937Z,19.00
2022-08-14T07:17:54.960Z,18.20
2022-08-14T07:20:32.098Z,18.20
2022-08-14T07:23:10.960Z,18.50
2022-08-14T07:25:55.168Z,19.00
2022-08-14T07:28:33.150Z,18.10
2022-08-14T07:31:09.474Z,19.40
2022-08-14T07:33:50.841Z,17.70
2022-08-14T07:36:27.246Z,17.40
2022-08-14T07:39:13.241Z,15.60
2022-08-14T07:44:29.489Z,17.10
2022-08-14T07:47:16.794Z,15.80
2022-08-14T07:50:02.578Z,15.60
2022-08-14T07:52:36.136Z,15.10
2022-08-14T07:55:12.069Z,17.30
2022-08-14T07:57:51.884Z,16.90
2022-08-14T08:00:29.974Z,15.90
2022-08-14T08:03:10.905Z,15.40
2022-08-14T08:05:46.691Z,14.80
2022-08-14T08:08:26.895Z,14.70
2022-08-14T08:11:03.719Z,15.70
2022-08-14T08:13:48.876Z,15.50
2022-08-14T08:16:29.706Z,16.20
2022-08-14T08:19:06.009Z,16.00
2022-08-14T08:21:47.027Z,14.50
2022-08-14T08:24:21.083Z,15.20
2022-08-14T08:26:54.397Z,14.50
2022-08-14T08:29:28.911Z,14.10
2022-08-14T08:32:06.086Z,13.30
2022-08-14T08:34:49.645Z,13.70
2022-08-14T08:37:25.343Z,13.70
2022-08-14T08:40:04.382Z,14.10
2022-08-14T08:42:44.904Z,13.90
2022-08-14T08:45:22.279Z,13.20
2022-08-14T08:47:56.904Z,14.10
2022-08-14T08:53:09.862Z,13.00
2022-08-14T08:55:45.185Z,12.40
2022-08-14T08:58:25.378Z,12.10
2022-08-14T09:01:01.806Z,13.40
2022-08-14T09:03:45.583Z,13.20
2022-08-14T09:07:00.316Z,13.10
2022-08-14T09:09:25.663Z,15.80
2022-08-14T09:12:10.992Z,15.50
2022-08-14T09:14:49.266Z,16.50
2022-08-14T09:17:26.303Z,14.00
2022-08-14T09:20:02.215Z,16.10
2022-08-14T09:22:42.452Z,14.60
2022-08-14T09:26:00.384Z,15.30
2022-08-14T09:28:17.031Z,13.60
2022-08-14T09:30:55.791Z,13.90
2022-08-14T09:34:04.346Z,13.50
2022-08-14T09:37:12.938Z,12.50
2022-08-14T09:40:06.135Z,13.60
2022-08-14T09:43:09.997Z,14.70
2022-08-14T09:45:53.298Z,14.40
2022-08-14T09:48:30.813Z,14.20
2022-08-14T09:54:17.748Z,15.10
2022-08-14T09:56:56.499Z,15.00
2022-08-14T09:59:40.580Z,14.60
2022-08-14T10:02:27.993Z,14.60
2022-08-14T10:05:09.790Z,14.20
2022-08-14T10:07:53.795Z,15.30
2022-08-14T10:10:38.272Z,16.10
2022-08-14T10:13:27.782Z,14.40
2022-08-14T10:16:21.750Z,14.30
2022-08-14T10:19:07.635Z,13.90
2022-08-14T10:23:15.405Z,14.20
2022-08-14T10:25:17.441Z,12.00
2022-08-14T10:28:01.601Z,13.40
2022-08-14T10:30:38.895Z,11.90
2022-08-14T10:33:12.366Z,12.20
2022-08-14T10:35:48.032Z,15.20
2022-08-14T10:38:33.806Z,14.30
2022-08-14T10:41:18.920Z,13.00
2022-08-14T10:44:21.618Z,13.40
2022-08-14T10:47:39.895Z,13.00
2022-08-14T10:50:04.545Z,11.60
2022-08-14T10:52:38.624Z,11.00
2022-08-14T10:55:20.915Z,12.60
2022-08-14T10:57:57.639Z,12.70
2022-08-14T11:00:35.613Z,12.80
2022-08-14T11:03:19.909Z,12.60
2022-08-14T11:06:01.258Z,11.50
2022-08-14T11:08:36.787Z,11.80
2022-08-14T11:11:11.939Z,11.50
2022-08-14T11:13:47.522Z,12.50
2022-08-14T11:16:21.336Z,11.70
2022-08-14T11:18:59.598Z,13.80
2022-08-14T11:21:34.666Z,15.10
2022-08-14T11:24:50.588Z,15.70
2022-08-14T11:27:13.720Z,15.00
2022-08-14T11:29:52.669Z,15.40
2022-08-14T11:32:33.948Z,13.90
2022-08-14T11:35:12.396Z,13.60
2022-08-14T11:37:57.005Z,15.10
2022-08-14T11:40:35.166Z,15.50
2022-08-14T11:43:10.281Z,15.60
2022-08-14T11:45:52.221Z,14.20
2022-08-14T11:49:01.910Z,11.30
2022-08-14T11:51:26.143Z,11.80
2022-08-14T11:54:08.686Z,10.70
2022-08-14T11:56:43.696Z,10.10
2022-08-14T11:59:26.519Z,9.20
2022-08-14T12:03:01.022Z,9.30
2022-08-14T12:07:53.367Z,8.00
2022-08-14T12:10:42.395Z,7.60
2022-08-14T12:13:19.201Z,7.20
2022-08-14T12:16:06.416Z,8.80
2022-08-14T12:18:48.402Z,9.90
2022-08-14T12:21:25.939Z,9.40
2022-08-14T12:24:09.881Z,11.10
2022-08-14T12:27:03.137Z,11.00
2022-08-14T12:29:36.628Z,11.00
2022-08-14T12:32:12.822Z,11.20
2022-08-14T12:34:55.302Z,10.90
2022-08-14T12:37:36.656Z,10.70
2022-08-14T12:40:25.043Z,11.40
2022-08-14T12:43:04.734Z,12.60
2022-08-14T12:45:38.648Z,12.70
2022-08-14T12:48:21.268Z,13.90
2022-08-14T12:51:04.796Z,12.00
2022-08-14T12:53:40.881Z,10.00
2022-08-14T12:56:22.148Z,10.30
2022-08-14T12:59:07.691Z,10.20
2022-08-14T13:01:59.247Z,11.30
2022-08-14T13:04:34.384Z,10.00
2022-08-14T13:07:09.050Z,12.20
2022-08-14T13:09:42.195Z,11.90
2022-08-14T13:12:32.451Z,12.70
2022-08-14T13:15:12.149Z,14.00
2022-08-14T13:17:51.148Z,13.00
2022-08-14T13:20:26.833Z,14.10
2022-08-14T13:23:07.528Z,12.90
2022-08-14T13:25:43.016Z,14.40
2022-08-14T13:28:33.965Z,13.60
2022-08-14T13:31:11.496Z,13.80
2022-08-14T13:33:46.478Z,13.10
2022-08-14T13:36:23.969Z,13.10
2022-08-14T13:39:16.122Z,13.60
2022-08-14T13:41:55.661Z,13.30
2022-08-14T13:44:36.203Z,12.20
2022-08-14T13:47:14.826Z,10.90
2022-08-14T13:49:58.043Z,12.70
2022-08-14T13:52:52.056Z,13.50
2022-08-14T13:55:31.027Z,12.60
2022-08-14T13:58:06.376Z,12.50
2022-08-14T14:00:52.841Z,12.70
2022-08-14T14:03:30.470Z,12.60
2022-08-14T14:06:07.503Z,13.60
2022-08-14T14:08:50.319Z,14.20
2022-08-14T14:11:24.958Z,12.50
2022-08-14T14:14:04.879Z,11.80
2022-08-14T14:16:39.970Z,12.80
2022-08-14T14:19:13.470Z,13.40
2022-08-14T14:21:51.829Z,13.10
2022-08-14T14:24:25.381Z,12.90
2022-08-14T14:27:38.857Z,12.70
2022-08-14T14:30:45.975Z,12.50
2022-08-14T14:33:02.271Z,12.80
2022-08-14T14:35:44.759Z,12.90
2022-08-14T14:38:27.669Z,13.00
2022-08-14T14:41:09.933Z,13.40
2022-08-14T14:43:51.487Z,13.10
2022-08-14T14:46:48.161Z,14.30
2022-08-14T14:49:42.145Z,12.80
2022-08-14T14:52:45.853Z,13.60
2022-08-14T14:55:23.705Z,13.10
2022-08-14T14:58:09.970Z,13.20
2022-08-14T15:00:48.589Z,15.00
2022-08-14T15:03:22.098Z,14.00
2022-08-14T15:05:56.302Z,14.40
2022-08-14T15:08:56.064Z,12.70
2022-08-14T15:11:24.335Z,12.20
2022-08-14T15:14:01.506Z,12.30
2022-08-14T15:16:59.240Z,12.80
2022-08-14T15:19:56.299Z,12.60
2022-08-14T15:22:33.702Z,11.80
2022-08-14T15:25:09.509Z,11.30
2022-08-14T15:27:45.047Z,10.50
2022-08-14T15:30:32.045Z,9.90
2022-08-14T15:34:01.099Z,11.20
2022-08-14T15:36:35.468Z,10.00
2022-08-14T15:39:10.104Z,9.80
2022-08-14T15:41:45.479Z,9.10
2022-08-14T15:44:26.396Z,9.00
2022-08-14T15:49:34.619Z,9.30
2022-08-14T15:52:09.725Z,8.50
2022-08-14T15:54:44.542Z,9.70
2022-08-14T15:57:19.909Z,9.60
2022-08-14T16:00:37.956Z,9.00
2022-08-14T16:03:08.512Z,9.10
2022-08-14T16:05:43.457Z,8.70
2022-08-14T16:08:26.670Z,9.50
2022-08-14T16:11:08.015Z,8.80
2022-08-14T16:13:45.186Z,8.30
2022-08-14T16:16:47.163Z,8.70
2022-08-14T16:19:21.300Z,9.00
2022-08-14T16:22:57.297Z,7.20
2022-08-14T16:25:02.053Z,6.90
2022-08-14T16:27:41.388Z,7.10
2022-08-14T16:30:33.053Z,6.90
2022-08-14T16:33:09.830Z,6.60
2022-08-14T16:36:03.782Z,5.70
2022-08-14T16:39:00.223Z,5.70
2022-08-14T16:41:35.857Z,5.80
2022-08-14T16:44:21.852Z,5.70
2022-08-14T16:47:07.841Z,7.00
2022-08-14T16:50:04.562Z,6.20
2022-08-14T16:52:44.224Z,6.20
2022-08-14T16:55:18.531Z,6.10
2022-08-14T16:57:55.295Z,6.50
2022-08-14T17:00:44.084Z,6.50
2022-08-14T17:03:20.587Z,7.00
2022-08-14T17:05:55.728Z,6.70
2022-08-14T17:08:41.480Z,7.60
2022-08-14T17:11:19.953Z,6.80
2022-08-14T17:14:00.576Z,6.50
2022-08-14T17:16:38.312Z,7.00
2022-08-14T17:19:17.385Z,8.00
2022-08-14T17:21:54.283Z,8.10
2022-08-14T17:27:25.769Z,7.60
2022-08-14T17:29:59.137Z,8.30
2022-08-14T17:32:56.227Z,8.30
2022-08-14T17:35:58.652Z,7.70
2022-08-14T17:38:33.596Z,8.60
2022-08-14T17:41:32.678Z,7.40
2022-08-14T17:44:22.011Z,7.90
2022-08-14T17:47:10.144Z,9.00
2022-08-14T17:49:52.953Z,9.80
2022-08-14T17:52:34.215Z,9.20
2022-08-14T17:57:46.910Z,9.40
2022-08-14T18:00:25.681Z,8.20
2022-08-14T18:03:03.270Z,9.70
2022-08-14T18:06:08.957Z,8.40
2022-08-14T18:08:40.903Z,8.30
2022-08-14T18:11:17.853Z,9.50
2022-08-14T18:13:53.342Z,8.80
2022-08-14T18:16:29.830Z,9.50
2022-08-14T18:19:04.457Z,10.20
2022-08-14T18:21:56.579Z,9.00
2022-08-14T18:24:31.896Z,8.90
2022-08-14T18:27:12.972Z,9.00
2022-08-14T18:29:55.240Z,8.60
2022-08-14T18:32:55.359Z,9.00
2022-08-14T18:35:59.837Z,8.80
2022-08-14T18:38:45.723Z,8.70
2022-08-14T18:41:36.343Z,8.90
2022-08-14T18:44:11.561Z,8.10
2022-08-14T18:47:26.633Z,8.70
2022-08-14T18:50:26.128Z,8.40
2022-08-14T18:53:11.323Z,8.60
2022-08-14T18:55:59.948Z,8.90
2022-08-14T18:58:56.846Z,8.50
2022-08-14T19:01:33.434Z,8.90
2022-08-14T19:04:08.349Z,8.70
2022-08-14T19:06:56.671Z,8.40
2022-08-14T19:09:59.374Z,9.00
2022-08-14T19:13:11.874Z,8.20
2022-08-14T19:16:23.368Z,8.60
2022-08-14T19:19:00.607Z,9.00
2022-08-14T19:21:38.440Z,8.50
2022-08-14T19:24:27.844Z,9.30
2022-08-14T19:27:23.803Z,8.10
2022-08-14T19:30:29.874Z,8.20
2022-08-14T19:33:05.490Z,8.60
2022-08-14T19:35:56.055Z,8.70
2022-08-14T19:38:59.138Z,8.90
2022-08-14T19:41:35.891Z,9.70
2022-08-14T19:44:31.831Z,9.50
2022-08-14T19:47:10.834Z,8.50
2022-08-14T19:50:08.675Z,9.20
2022-08-14T19:52:41.111Z,8.70
2022-08-14T19:55:21.237Z,9.00
2022-08-14T19:58:09.964Z,9.30
2022-08-14T20:00:55.976Z,9.90
2022-08-14T20:03:59.212Z,9.10
2022-08-14T20:06:46.580Z,9.00
2022-08-14T20:11:07.904Z,8.60
2022-08-14T20:12:28.914Z,9.00
2022-08-14T20:15:15.407Z,9.20
2022-08-14T20:18:22.148Z,10.20
2022-08-14T20:21:06.415Z,10.40
2022-08-14T20:23:48.291Z,9.90
2022-08-14T20:26:30.456Z,10.30
2022-08-14T20:29:07.444Z,9.60
2022-08-14T20:31:48.322Z,8.80
2022-08-14T20:34:39.560Z,9.70
2022-08-14T20:37:24.693Z,10.30
2022-08-14T20:39:58.133Z,10.70
2022-08-14T20:42:56.607Z,10.60
2022-08-14T20:45:32.682Z,10.20
2022-08-14T20:48:09.298Z,10.70
2022-08-14T20:50:45.152Z,10.50
2022-08-14T20:53:35.703Z,10.60
2022-08-14T20:56:28.584Z,11.10
2022-08-14T20:59:18.125Z,10.30
2022-08-14T21:01:55.181Z,11.10
2022-08-14T21:04:33.952Z,10.40
2022-08-14T21:07:26.077Z,10.40
2022-08-14T21:10:35.197Z,10.50
2022-08-14T21:14:08.894Z,10.30
2022-08-14T21:16:34.613Z,9.60
2022-08-14T21:19:04.032Z,11.10
2022-08-14T21:21:42.398Z,10.40
2022-08-14T21:24:38.873Z,9.80
2022-08-14T21:27:20.054Z,9.50
2022-08-14T21:30:20.820Z,9.00
2022-08-14T21:32:58.224Z,9.90
2022-08-14T21:35:41.748Z,10.30
2022-08-14T21:38:18.409Z,11.10
2022-08-14T21:41:42.602Z,11.20
2022-08-14T21:44:17.827Z,11.80
2022-08-14T21:46:58.936Z,11.80
2022-08-14T21:49:38.927Z,11.00
2022-08-14T21:52:52.167Z,11.20
2022-08-14T21:55:23.525Z,10.80
2022-08-14T21:58:51.159Z,10.80
2022-08-14T22:00:51.197Z,9.70
2022-08-14T22:03:26.452Z,12.20
2022-08-14T22:06:10.266Z,10.40
2022-08-14T22:08:46.277Z,10.60
2022-08-14T22:11:27.339Z,11.00
2022-08-14T22:14:02.169Z,10.80
2022-08-14T22:17:02.167Z,11.80
2022-08-14T22:19:54.101Z,10.70
2022-08-14T22:22:29.533Z,11.80
2022-08-14T22:25:03.772Z,10.90
2022-08-14T22:27:37.251Z,11.40
2022-08-14T22:30:30.082Z,11.30
2022-08-14T22:33:05.435Z,11.80
2022-08-14T22:35:38.822Z,12.30
2022-08-14T22:38:37.705Z,12.30
2022-08-14T22:41:25.494Z,11.50
2022-08-14T22:44:03.572Z,11.80
2022-08-14T22:46:37.624Z,12.00
2022-08-14T22:50:30.275Z,11.30
2022-08-14T22:52:32.873Z,11.50
2022-08-14T22:55:08.912Z,12.70
2022-08-14T22:57:43.664Z,13.30
2022-08-14T23:00:25.178Z,12.50
2022-08-14T23:03:03.649Z,12.30
2022-08-14T23:05:40.100Z,11.50
2022-08-14T23:09:01.881Z,11.00
2022-08-14T23:11:18.688Z,12.10
2022-08-14T23:13:54.737Z,13.10
2022-08-14T23:16:27.989Z,12.30
2022-08-14T23:19:02.178Z,13.30
2022-08-14T23:21:35.609Z,14.00
2022-08-14T23:24:09.884Z,12.80
2022-08-14T23:26:53.701Z,13.40
2022-08-14T23:29:27.286Z,14.00
2022-08-14T23:32:05.072Z,12.40
2022-08-14T23:34:51.484Z,12.90
2022-08-14T23:37:27.181Z,14.20
2022-08-14T23:40:02.119Z,13.30
2022-08-14T23:42:40.006Z,13.70
2022-08-14T23:45:15.624Z,15.00
2022-08-14T23:47:52.216Z,15.00
2022-08-14T23:50:34.227Z,13.90
2022-08-14T23:53:27.944Z,12.90
2022-08-14T23:56:06.112Z,13.60
2022-08-14T23:58:40.092Z,13.20
